sensor_id;sensor_type;location;lat;lon;timestamp;pressure;altitude;pressure_sealevel;temperature;humidity
3142;BME280;1581;51.568;6.998;2023-08-30T00:01:49;100173.19;;;16.78;100.00
3142;BME280;1581;51.568;6.998;2023-08-30T00:04:16;100167.50;;;16.74;100.00
3142;BME280;1581;51.568;6.998;2023-08-30T00:06:44;100166.44;;;16.75;100.00
3142;BME280;1581;51.568;6.998;2023-08-30T00:09:12;100174.50;;;16.75;100.00
3142;BME280;1581;51.568;6.998;2023-08-30T00:11:39;100166.19;;;16.77;100.00
3142;BME280;1581;51.568;6.998;2023-08-30T00:14:07;100165.75;;;16.68;100.00
3142;BME280;1581;51.568;6.998;2023-08-30T00:16:37;100167.94;;;16.55;100.00
3142;BME280;1581;51.568;6.998;2023-08-30T00:19:06;100163.66;;;16.42;100.00
3142;BME280;1581;51.568;6.998;2023-08-30T00:21:34;100160.84;;;16.38;100.00
3142;BME280;1581;51.568;6.998;2023-08-30T00:24:02;100168.34;;;16.24;100.00
3142;BME280;1581;51.568;6.998;2023-08-30T00:26:30;100159.25;;;16.25;100.00
3142;BME280;1581;51.568;6.998;2023-08-30T00:28:58;100162.97;;;16.24;100.00
3142;BME280;1581;51.568;6.998;2023-08-30T00:31:25;100161.59;;;16.22;100.00
3142;BME280;1581;51.568;6.998;2023-08-30T00:33:53;100169.22;;;16.13;100.00
3142;BME280;1581;51.568;6.998;2023-08-30T00:36:22;100164.53;;;16.09;100.00
3142;BME280;1581;51.568;6.998;2023-08-30T00:38:50;100167.56;;;16.12;100.00
3142;BME280;1581;51.568;6.998;2023-08-30T00:41:17;100165.47;;;16.14;100.00
3142;BME280;1581;51.568;6.998;2023-08-30T00:43:45;100164.66;;;16.14;100.00
3142;BME280;1581;51.568;6.998;2023-08-30T00:46:13;100156.94;;;16.17;100.00
3142;BME280;1581;51.568;6.998;2023-08-30T00:48:43;100163.13;;;16.18;100.00
3142;BME280;1581;51.568;6.998;2023-08-30T00:51:11;100157.91;;;16.11;100.00
3142;BME280;1581;51.568;6.998;2023-08-30T00:53:41;100158.03;;;16.05;100.00
3142;BME280;1581;51.568;6.998;2023-08-30T00:56:08;100150.69;;;16.00;100.00
3142;BME280;1581;51.568;6.998;2023-08-30T00:58:36;100155.22;;;16.00;100.00
3142;BME280;1581;51.568;6.998;2023-08-30T01:01:05;100150.81;;;15.94;100.00
3142;BME280;1581;51.568;6.998;2023-08-30T01:03:34;100150.81;;;15.94;100.00
3142;BME280;1581;51.568;6.998;2023-08-30T01:06:01;100150.56;;;15.95;100.00
3142;BME280;1581;51.568;6.998;2023-08-30T01:08:29;100143.94;;;15.86;100.00
3142;BME280;1581;51.568;6.998;2023-08-30T01:11:05;100148.72;;;15.84;100.00
3142;BME280;1581;51.568;6.998;2023-08-30T01:13:44;100141.38;;;15.80;100.00
3142;BME280;1581;51.568;6.998;2023-08-30T01:16:15;100138.09;;;15.78;100.00
3142;BME280;1581;51.568;6.998;2023-08-30T01:18:47;100133.34;;;15.68;100.00
3142;BME280;1581;51.568;6.998;2023-08-30T01:21:30;100132.16;;;15.64;100.00
3142;BME280;1581;51.568;6.998;2023-08-30T01:24:00;100127.13;;;15.68;100.00
3142;BME280;1581;51.568;6.998;2023-08-30T01:26:44;100119.94;;;15.57;100.00
3142;BME280;1581;51.568;6.998;2023-08-30T01:29:15;100124.47;;;15.56;100.00
3142;BME280;1581;51.568;6.998;2023-08-30T01:31:44;100128.41;;;15.65;100.00
3142;BME280;1581;51.568;6.998;2023-08-30T01:34:14;100123.28;;;15.75;100.00
3142;BME280;1581;51.568;6.998;2023-08-30T01:36:43;100114.41;;;15.75;100.00
3142;BME280;1581;51.568;6.998;2023-08-30T01:39:11;100119.44;;;15.71;100.00
3142;BME280;1581;51.568;6.998;2023-08-30T01:41:42;100120.00;;;15.73;100.00
3142;BME280;1581;51.568;6.998;2023-08-30T01:44:11;100131.78;;;15.72;100.00
3142;BME280;1581;51.568;6.998;2023-08-30T01:46:45;100127.97;;;15.68;100.00
3142;BME280;1581;51.568;6.998;2023-08-30T01:49:14;100125.88;;;15.70;100.00
3142;BME280;1581;51.568;6.998;2023-08-30T01:51:42;100127.72;;;15.70;100.00
3142;BME280;1581;51.568;6.998;2023-08-30T01:54:10;100118.94;;;15.74;100.00
3142;BME280;1581;51.568;6.998;2023-08-30T01:56:41;100120.16;;;15.67;100.00
3142;BME280;1581;51.568;6.998;2023-08-30T01:59:09;100125.88;;;15.70;100.00
3142;BME280;1581;51.568;6.998;2023-08-30T02:01:36;100120.03;;;15.62;100.00
3142;BME280;1581;51.568;6.998;2023-08-30T02:04:05;100124.94;;;15.65;100.00
3142;BME280;1581;51.568;6.998;2023-08-30T02:06:39;100127.84;;;15.63;100.00
3142;BME280;1581;51.568;6.998;2023-08-30T02:09:15;100122.97;;;15.60;100.00
3142;BME280;1581;51.568;6.998;2023-08-30T02:11:45;100128.34;;;15.60;100.00
3142;BME280;1581;51.568;6.998;2023-08-30T02:14:14;100135.91;;;15.63;100.00
3142;BME280;1581;51.568;6.998;2023-08-30T02:16:46;100133.00;;;15.65;100.00
3142;BME280;1581;51.568;6.998;2023-08-30T02:19:16;100132.50;;;15.68;100.00
3142;BME280;1581;51.568;6.998;2023-08-30T02:21:47;100130.28;;;15.76;100.00
3142;BME280;1581;51.568;6.998;2023-08-30T02:24:15;100128.84;;;15.85;100.00
3142;BME280;1581;51.568;6.998;2023-08-30T02:26:44;100126.03;;;15.92;100.00
3142;BME280;1581;51.568;6.998;2023-08-30T02:29:12;100128.06;;;15.85;100.00
3142;BME280;1581;51.568;6.998;2023-08-30T02:31:39;100121.72;;;15.91;100.00
3142;BME280;1581;51.568;6.998;2023-08-30T02:34:07;100115.25;;;16.03;100.00
3142;BME280;1581;51.568;6.998;2023-08-30T02:36:36;100125.25;;;16.19;100.00
3142;BME280;1581;51.568;6.998;2023-08-30T02:39:04;100118.84;;;16.09;100.00
3142;BME280;1581;51.568;6.998;2023-08-30T02:41:32;100125.69;;;16.28;100.00
3142;BME280;1581;51.568;6.998;2023-08-30T02:44:00;100125.16;;;16.14;100.00
3142;BME280;1581;51.568;6.998;2023-08-30T02:46:28;100124.53;;;16.24;100.00
3142;BME280;1581;51.568;6.998;2023-08-30T02:48:55;100124.34;;;16.14;100.00
3142;BME280;1581;51.568;6.998;2023-08-30T02:51:23;100116.41;;;16.07;100.00
3142;BME280;1581;51.568;6.998;2023-08-30T02:53:52;100113.28;;;15.99;100.00
3142;BME280;1581;51.568;6.998;2023-08-30T02:56:19;100102.09;;;15.90;100.00
3142;BME280;1581;51.568;6.998;2023-08-30T02:58:47;100106.44;;;15.91;100.00
3142;BME280;1581;51.568;6.998;2023-08-30T03:01:15;100101.41;;;15.83;100.00
3142;BME280;1581;51.568;6.998;2023-08-30T03:03:42;100101.56;;;15.77;100.00
3142;BME280;1581;51.568;6.998;2023-08-30T03:06:10;100096.31;;;15.70;100.00
3142;BME280;1581;51.568;6.998;2023-08-30T03:08:37;100088.13;;;15.77;100.00
3142;BME280;1581;51.568;6.998;2023-08-30T03:11:10;100091.66;;;15.66;100.00
3142;BME280;1581;51.568;6.998;2023-08-30T03:13:38;100100.19;;;15.63;100.00
3142;BME280;1581;51.568;6.998;2023-08-30T03:16:11;100099.94;;;15.64;100.00
3142;BME280;1581;51.568;6.998;2023-08-30T03:18:39;100094.34;;;15.54;100.00
3142;BME280;1581;51.568;6.998;2023-08-30T03:21:07;100091.06;;;15.64;100.00
3142;BME280;1581;51.568;6.998;2023-08-30T03:23:39;100088.84;;;15.61;100.00
3142;BME280;1581;51.568;6.998;2023-08-30T03:26:11;100091.66;;;15.66;100.00
3142;BME280;1581;51.568;6.998;2023-08-30T03:28:39;100100.75;;;15.65;100.00
3142;BME280;1581;51.568;6.998;2023-08-30T03:31:14;100089.19;;;15.64;100.00
3142;BME280;1581;51.568;6.998;2023-08-30T03:33:52;100092.31;;;15.73;100.00
3142;BME280;1581;51.568;6.998;2023-08-30T03:36:20;100084.94;;;15.91;100.00
3142;BME280;1581;51.568;6.998;2023-08-30T03:38:48;100082.84;;;15.82;100.00
3142;BME280;1581;51.568;6.998;2023-08-30T03:41:18;100075.75;;;15.76;100.00
3142;BME280;1581;51.568;6.998;2023-08-30T03:43:46;100081.78;;;15.83;100.00
3142;BME280;1581;51.568;6.998;2023-08-30T03:46:14;100074.91;;;15.87;100.00
3142;BME280;1581;51.568;6.998;2023-08-30T03:48:41;100076.88;;;15.91;100.00
3142;BME280;1581;51.568;6.998;2023-08-30T03:51:09;100076.88;;;15.91;100.00
3142;BME280;1581;51.568;6.998;2023-08-30T03:53:37;100070.53;;;15.97;100.00
3142;BME280;1581;51.568;6.998;2023-08-30T03:56:04;100078.34;;;15.99;100.00
3142;BME280;1581;51.568;6.998;2023-08-30T03:58:33;100074.72;;;16.05;100.00
3142;BME280;1581;51.568;6.998;2023-08-30T04:01:01;100071.00;;;15.94;100.00
3142;BME280;1581;51.568;6.998;2023-08-30T04:03:28;100071.63;;;15.85;100.00
3142;BME280;1581;51.568;6.998;2023-08-30T04:05:56;100077.72;;;15.80;100.00
3142;BME280;1581;51.568;6.998;2023-08-30T04:08:24;100068.88;;;15.68;100.00
3142;BME280;1581;51.568;6.998;2023-08-30T04:10:53;100061.94;;;15.84;100.00
3142;BME280;1581;51.568;6.998;2023-08-30T04:13:21;100060.19;;;15.78;100.00
3142;BME280;1581;51.568;6.998;2023-08-30T04:15:51;100056.38;;;15.74;100.00
3142;BME280;1581;51.568;6.998;2023-08-30T04:18:18;100055.09;;;15.65;100.00
3142;BME280;1581;51.568;6.998;2023-08-30T04:20:47;100057.44;;;15.61;100.00
3142;BME280;1581;51.568;6.998;2023-08-30T04:23:16;100047.97;;;15.59;100.00
3142;BME280;1581;51.568;6.998;2023-08-30T04:25:46;100041.69;;;15.53;100.00
3142;BME280;1581;51.568;6.998;2023-08-30T04:28:15;100049.19;;;15.52;100.00
3142;BME280;1581;51.568;6.998;2023-08-30T04:30:43;100044.38;;;15.53;100.00
3142;BME280;1581;51.568;6.998;2023-08-30T04:33:13;100051.28;;;15.50;100.00
3142;BME280;1581;51.568;6.998;2023-08-30T04:35:41;100043.78;;;15.63;100.00
3142;BME280;1581;51.568;6.998;2023-08-30T04:38:09;100040.63;;;15.66;100.00
3142;BME280;1581;51.568;6.998;2023-08-30T04:40:36;100038.28;;;15.58;100.00
3142;BME280;1581;51.568;6.998;2023-08-30T04:43:04;100033.50;;;15.60;100.00
3142;BME280;1581;51.568;6.998;2023-08-30T04:45:34;100033.41;;;15.55;100.00
3142;BME280;1581;51.568;6.998;2023-08-30T04:48:02;100029.44;;;15.57;100.00
3142;BME280;1581;51.568;6.998;2023-08-30T04:50:31;100030.13;;;15.53;100.00
3142;BME280;1581;51.568;6.998;2023-08-30T04:52:59;100031.97;;;15.64;100.00
3142;BME280;1581;51.568;6.998;2023-08-30T04:55:28;100034.69;;;15.52;100.00
3142;BME280;1581;51.568;6.998;2023-08-30T04:57:56;100029.44;;;15.57;100.00
3142;BME280;1581;51.568;6.998;2023-08-30T05:00:24;100025.47;;;15.49;100.00
3142;BME280;1581;51.568;6.998;2023-08-30T05:02:52;100026.78;;;15.46;100.00
3142;BME280;1581;51.568;6.998;2023-08-30T05:05:19;100023.63;;;15.38;100.00
3142;BME280;1581;51.568;6.998;2023-08-30T05:07:48;100014.06;;;15.42;100.00
3142;BME280;1581;51.568;6.998;2023-08-30T05:10:16;100020.81;;;15.44;100.00
3142;BME280;1581;51.568;6.998;2023-08-30T05:12:43;100019.31;;;15.37;100.00
3142;BME280;1581;51.568;6.998;2023-08-30T05:15:16;100012.56;;;15.34;100.00
3142;BME280;1581;51.568;6.998;2023-08-30T05:17:43;100007.41;;;15.44;100.00
3142;BME280;1581;51.568;6.998;2023-08-30T05:20:11;100009.13;;;15.50;100.00
3142;BME280;1581;51.568;6.998;2023-08-30T05:22:39;99996.53;;;15.39;100.00
3142;BME280;1581;51.568;6.998;2023-08-30T05:25:08;99994.91;;;15.38;100.00
3142;BME280;1581;51.568;6.998;2023-08-30T05:27:36;99988.63;;;15.33;100.00
3142;BME280;1581;51.568;6.998;2023-08-30T05:30:05;99993.75;;;15.34;100.00
3142;BME280;1581;51.568;6.998;2023-08-30T05:32:33;99985.47;;;15.36;100.00
3142;BME280;1581;51.568;6.998;2023-08-30T05:35:00;99980.81;;;15.31;100.00
3142;BME280;1581;51.568;6.998;2023-08-30T05:37:28;99979.50;;;15.34;100.00
3142;BME280;1581;51.568;6.998;2023-08-30T05:39:57;99980.22;;;15.41;100.00
3142;BME280;1581;51.568;6.998;2023-08-30T05:42:26;99983.03;;;15.34;100.00
3142;BME280;1581;51.568;6.998;2023-08-30T05:44:54;99974.31;;;15.27;100.00
3142;BME280;1581;51.568;6.998;2023-08-30T05:47:22;99976.69;;;15.40;100.00
3142;BME280;1581;51.568;6.998;2023-08-30T05:49:49;99976.59;;;15.35;100.00
3142;BME280;1581;51.568;6.998;2023-08-30T05:52:17;99972.38;;;15.39;100.00
3142;BME280;1581;51.568;6.998;2023-08-30T05:54:45;99976.91;;;15.50;100.00
3142;BME280;1581;51.568;6.998;2023-08-30T05:57:12;99963.19;;;15.63;100.00
3142;BME280;1581;51.568;6.998;2023-08-30T05:59:41;99960.78;;;15.78;100.00
3142;BME280;1581;51.568;6.998;2023-08-30T06:02:09;99959.84;;;15.84;100.00
3142;BME280;1581;51.568;6.998;2023-08-30T06:04:37;99962.38;;;15.90;100.00
3142;BME280;1581;51.568;6.998;2023-08-30T06:07:05;99954.50;;;16.00;100.00
3142;BME280;1581;51.568;6.998;2023-08-30T06:09:32;99961.72;;;16.00;100.00
3142;BME280;1581;51.568;6.998;2023-08-30T06:12:03;99963.53;;;16.11;100.00
3142;BME280;1581;51.568;6.998;2023-08-30T06:14:31;99957.84;;;16.24;100.00
3142;BME280;1581;51.568;6.998;2023-08-30T06:17:00;99959.91;;;16.33;100.00
3142;BME280;1581;51.568;6.998;2023-08-30T06:19:28;99960.66;;;16.45;100.00
3142;BME280;1581;51.568;6.998;2023-08-30T06:21:56;99957.66;;;16.58;100.00
3142;BME280;1581;51.568;6.998;2023-08-30T06:24:24;99962.03;;;16.64;100.00
3142;BME280;1581;51.568;6.998;2023-08-30T06:26:51;99957.84;;;16.73;100.00
3142;BME280;1581;51.568;6.998;2023-08-30T06:29:19;99957.78;;;16.84;100.00
3142;BME280;1581;51.568;6.998;2023-08-30T06:31:47;99955.44;;;16.93;100.00
3142;BME280;1581;51.568;6.998;2023-08-30T06:34:16;99948.78;;;16.95;100.00
3142;BME280;1581;51.568;6.998;2023-08-30T06:36:44;99946.97;;;17.01;100.00
3142;BME280;1581;51.568;6.998;2023-08-30T06:39:12;99946.72;;;17.02;100.00
3142;BME280;1581;51.568;6.998;2023-08-30T06:41:40;99942.22;;;17.08;100.00
3142;BME280;1581;51.568;6.998;2023-08-30T06:44:07;99944.72;;;17.14;100.00
3142;BME280;1581;51.568;6.998;2023-08-30T06:46:35;99941.28;;;17.19;100.00
3142;BME280;1581;51.568;6.998;2023-08-30T06:49:04;99948.13;;;17.26;100.00
3142;BME280;1581;51.568;6.998;2023-08-30T06:51:36;99942.88;;;17.36;100.00
3142;BME280;1581;51.568;6.998;2023-08-30T06:54:04;99943.94;;;17.35;100.00
3142;BME280;1581;51.568;6.998;2023-08-30T06:56:31;99939.97;;;17.42;100.00
3142;BME280;1581;51.568;6.998;2023-08-30T06:58:59;99934.59;;;17.42;100.00
3142;BME280;1581;51.568;6.998;2023-08-30T07:01:26;99950.38;;;17.55;100.00
3142;BME280;1581;51.568;6.998;2023-08-30T07:03:54;99941.78;;;17.58;100.00
3142;BME280;1581;51.568;6.998;2023-08-30T07:06:21;99932.19;;;17.67;100.00
3142;BME280;1581;51.568;6.998;2023-08-30T07:08:50;99932.75;;;17.69;100.00
3142;BME280;1581;51.568;6.998;2023-08-30T07:11:18;99929.53;;;17.72;100.00
3142;BME280;1581;51.568;6.998;2023-08-30T07:13:45;99929.91;;;17.81;100.00
3142;BME280;1581;51.568;6.998;2023-08-30T07:16:13;99921.91;;;17.91;100.00
3142;BME280;1581;51.568;6.998;2023-08-30T07:18:41;99917.84;;;17.88;100.00
3142;BME280;1581;51.568;6.998;2023-08-30T07:21:08;99922.22;;;17.94;100.00
3142;BME280;1581;51.568;6.998;2023-08-30T07:23:36;99916.91;;;18.04;100.00
3142;BME280;1581;51.568;6.998;2023-08-30T07:26:05;99921.09;;;18.16;100.00
3142;BME280;1581;51.568;6.998;2023-08-30T07:28:32;99920.63;;;18.24;100.00
3142;BME280;1581;51.568;6.998;2023-08-30T07:31:03;99909.47;;;18.16;100.00
3142;BME280;1581;51.568;6.998;2023-08-30T07:33:31;99911.50;;;18.30;100.00
3142;BME280;1581;51.568;6.998;2023-08-30T07:35:59;99912.88;;;18.33;100.00
3142;BME280;1581;51.568;6.998;2023-08-30T07:38:26;99919.97;;;18.44;100.00
3142;BME280;1581;51.568;6.998;2023-08-30T07:40:54;99913.00;;;18.48;100.00
3142;BME280;1581;51.568;6.998;2023-08-30T07:43:23;99916.28;;;18.55;100.00
3142;BME280;1581;51.568;6.998;2023-08-30T07:45:50;99910.13;;;18.64;100.00
3142;BME280;1581;51.568;6.998;2023-08-30T07:48:18;99909.88;;;18.66;100.00
3142;BME280;1581;51.568;6.998;2023-08-30T07:50:46;99912.06;;;18.74;100.00
3142;BME280;1581;51.568;6.998;2023-08-30T07:53:13;99908.00;;;18.71;100.00
3142;BME280;1581;51.568;6.998;2023-08-30T07:55:41;99921.72;;;18.65;100.00
3142;BME280;1581;51.568;6.998;2023-08-30T07:58:08;99917.22;;;18.75;100.00
3142;BME280;1581;51.568;6.998;2023-08-30T08:00:38;99922.91;;;18.79;100.00
3142;BME280;1581;51.568;6.998;2023-08-30T08:03:05;99911.06;;;18.85;100.00
3142;BME280;1581;51.568;6.998;2023-08-30T08:05:33;99913.50;;;18.86;100.00
3142;BME280;1581;51.568;6.998;2023-08-30T08:08:01;99916.28;;;18.96;100.00
3142;BME280;1581;51.568;6.998;2023-08-30T08:10:31;99920.06;;;19.00;100.00
3142;BME280;1581;51.568;6.998;2023-08-30T08:12:59;99913.31;;;19.02;100.00
3142;BME280;1581;51.568;6.998;2023-08-30T08:15:28;99930.75;;;19.26;100.00
3142;BME280;1581;51.568;6.998;2023-08-30T08:17:58;99929.72;;;19.37;100.00
3142;BME280;1581;51.568;6.998;2023-08-30T08:20:25;99921.97;;;19.81;100.00
3142;BME280;1581;51.568;6.998;2023-08-30T08:22:53;99926.38;;;20.06;100.00
3142;BME280;1581;51.568;6.998;2023-08-30T08:25:21;99913.94;;;20.20;100.00
3142;BME280;1581;51.568;6.998;2023-08-30T08:27:49;99920.72;;;20.38;100.00
3142;BME280;1581;51.568;6.998;2023-08-30T08:30:17;99921.00;;;20.36;100.00
3142;BME280;1581;51.568;6.998;2023-08-30T08:32:46;99923.16;;;20.34;100.00
3142;BME280;1581;51.568;6.998;2023-08-30T08:35:16;99918.53;;;20.45;100.00
3142;BME280;1581;51.568;6.998;2023-08-30T08:37:43;99936.38;;;20.66;100.00
3142;BME280;1581;51.568;6.998;2023-08-30T08:40:11;99932.56;;;20.96;98.96
3142;BME280;1581;51.568;6.998;2023-08-30T08:42:39;99926.00;;;21.12;96.08
3142;BME280;1581;51.568;6.998;2023-08-30T08:45:10;99926.28;;;21.11;94.21
3142;BME280;1581;51.568;6.998;2023-08-30T08:47:38;99926.38;;;21.59;93.57
3142;BME280;1581;51.568;6.998;2023-08-30T08:50:07;99922.41;;;21.85;94.04
3142;BME280;1581;51.568;6.998;2023-08-30T08:52:36;99916.19;;;21.84;92.16
3142;BME280;1581;51.568;6.998;2023-08-30T08:55:05;99920.53;;;21.85;93.75
3142;BME280;1581;51.568;6.998;2023-08-30T08:57:33;99911.81;;;21.88;92.76
3142;BME280;1581;51.568;6.998;2023-08-30T09:00:00;99920.91;;;21.64;90.63
3142;BME280;1581;51.568;6.998;2023-08-30T09:02:29;99908.66;;;21.71;90.21
3142;BME280;1581;51.568;6.998;2023-08-30T09:04:58;99908.09;;;21.16;94.03
3142;BME280;1581;51.568;6.998;2023-08-30T09:07:28;99908.16;;;20.91;94.74
3142;BME280;1581;51.568;6.998;2023-08-30T09:09:58;99906.88;;;21.42;93.76
3142;BME280;1581;51.568;6.998;2023-08-30T09:12:26;99917.69;;;21.57;93.20
3142;BME280;1581;51.568;6.998;2023-08-30T09:14:55;99913.38;;;20.83;93.27
3142;BME280;1581;51.568;6.998;2023-08-30T09:17:36;99913.09;;;20.70;94.64
3142;BME280;1581;51.568;6.998;2023-08-30T09:20:09;99917.41;;;20.66;96.10
3142;BME280;1581;51.568;6.998;2023-08-30T09:23:02;99907.16;;;20.58;96.31
3142;BME280;1581;51.568;6.998;2023-08-30T09:25:36;99902.03;;;20.31;95.62
3142;BME280;1581;51.568;6.998;2023-08-30T09:28:04;99905.00;;;20.15;98.41
3142;BME280;1581;51.568;6.998;2023-08-30T09:30:33;99908.19;;;19.82;99.19
3142;BME280;1581;51.568;6.998;2023-08-30T09:33:05;99908.75;;;19.84;100.00
3142;BME280;1581;51.568;6.998;2023-08-30T09:35:44;99914.66;;;19.61;100.00
3142;BME280;1581;51.568;6.998;2023-08-30T09:38:19;99905.19;;;19.54;100.00
3142;BME280;1581;51.568;6.998;2023-08-30T09:40:49;99893.56;;;19.63;100.00
3142;BME280;1581;51.568;6.998;2023-08-30T09:43:19;99891.38;;;19.55;100.00
3142;BME280;1581;51.568;6.998;2023-08-30T09:45:50;99894.34;;;19.59;100.00
3142;BME280;1581;51.568;6.998;2023-08-30T09:48:21;99884.34;;;19.49;100.00
3142;BME280;1581;51.568;6.998;2023-08-30T09:50:54;99886.63;;;19.06;100.00
3142;BME280;1581;51.568;6.998;2023-08-30T09:53:24;99900.72;;;19.18;100.00
3142;BME280;1581;51.568;6.998;2023-08-30T09:55:57;99892.19;;;19.51;100.00
3142;BME280;1581;51.568;6.998;2023-08-30T09:58:30;99901.63;;;19.53;100.00
3142;BME280;1581;51.568;6.998;2023-08-30T10:01:06;99894.56;;;19.32;100.00
3142;BME280;1581;51.568;6.998;2023-08-30T10:03:42;99896.69;;;19.25;100.00
3142;BME280;1581;51.568;6.998;2023-08-30T10:06:12;99896.56;;;19.01;100.00
3142;BME280;1581;51.568;6.998;2023-08-30T10:08:42;99885.19;;;18.94;100.00
3142;BME280;1581;51.568;6.998;2023-08-30T10:11:14;99884.16;;;19.00;100.00
3142;BME280;1581;51.568;6.998;2023-08-30T10:13:45;99899.41;;;18.79;100.00
3142;BME280;1581;51.568;6.998;2023-08-30T10:16:19;99895.88;;;18.74;100.00
3142;BME280;1581;51.568;6.998;2023-08-30T10:18:50;99887.44;;;18.60;100.00
3142;BME280;1581;51.568;6.998;2023-08-30T10:21:19;99877.75;;;18.69;100.00
3142;BME280;1581;51.568;6.998;2023-08-30T10:23:49;99878.59;;;18.70;100.00
3142;BME280;1581;51.568;6.998;2023-08-30T10:26:23;99883.09;;;18.59;100.00
3142;BME280;1581;51.568;6.998;2023-08-30T10:28:53;99881.41;;;18.43;100.00
3142;BME280;1581;51.568;6.998;2023-08-30T10:31:22;99885.44;;;18.41;100.00
3142;BME280;1581;51.568;6.998;2023-08-30T10:33:52;99885.16;;;18.42;100.00
3142;BME280;1581;51.568;6.998;2023-08-30T10:36:23;99885.66;;;18.34;100.00
3142;BME280;1581;51.568;6.998;2023-08-30T10:38:52;99885.56;;;18.24;100.00
3142;BME280;1581;51.568;6.998;2023-08-30T10:41:23;99884.81;;;18.29;100.00
3142;BME280;1581;51.568;6.998;2023-08-30T10:43:55;99884.81;;;18.34;100.00
3142;BME280;1581;51.568;6.998;2023-08-30T10:46:32;99888.13;;;18.41;100.00
3142;BME280;1581;51.568;6.998;2023-08-30T10:49:12;99887.22;;;18.30;100.00
3142;BME280;1581;51.568;6.998;2023-08-30T10:51:41;99880.41;;;18.23;100.00
3142;BME280;1581;51.568;6.998;2023-08-30T10:54:14;99887.38;;;18.19;100.00
3142;BME280;1581;51.568;6.998;2023-08-30T10:56:56;99891.94;;;18.18;100.00
3142;BME280;1581;51.568;6.998;2023-08-30T10:59:25;99889.63;;;18.27;100.00
3142;BME280;1581;51.568;6.998;2023-08-30T11:01:56;99882.31;;;18.22;100.00
3142;BME280;1581;51.568;6.998;2023-08-30T11:04:29;99888.66;;;18.12;100.00
3142;BME280;1581;51.568;6.998;2023-08-30T11:06:57;99886.69;;;18.02;100.00
3142;BME280;1581;51.568;6.998;2023-08-30T11:09:25;99884.25;;;18.01;100.00
3142;BME280;1581;51.568;6.998;2023-08-30T11:11:54;99874.81;;;17.98;100.00
3142;BME280;1581;51.568;6.998;2023-08-30T11:14:21;99872.81;;;17.84;100.00
3142;BME280;1581;51.568;6.998;2023-08-30T11:16:49;99873.09;;;17.87;100.00
3142;BME280;1581;51.568;6.998;2023-08-30T11:19:16;99866.91;;;17.87;100.00
3142;BME280;1581;51.568;6.998;2023-08-30T11:21:45;99871.75;;;17.90;100.00
3142;BME280;1581;51.568;6.998;2023-08-30T11:24:12;99869.13;;;17.95;100.00
3142;BME280;1581;51.568;6.998;2023-08-30T11:26:40;99874.22;;;17.91;100.00
3142;BME280;1581;51.568;6.998;2023-08-30T11:29:10;99877.16;;;17.90;100.00
3142;BME280;1581;51.568;6.998;2023-08-30T11:31:38;99875.59;;;17.99;100.00
3142;BME280;1581;51.568;6.998;2023-08-30T11:34:06;99875.00;;;17.87;100.00
3142;BME280;1581;51.568;6.998;2023-08-30T11:36:36;99876.16;;;17.96;100.00
3142;BME280;1581;51.568;6.998;2023-08-30T11:39:04;99872.53;;;17.85;100.00
3142;BME280;1581;51.568;6.998;2023-08-30T11:41:32;99871.16;;;17.83;100.00
3142;BME280;1581;51.568;6.998;2023-08-30T11:44:00;99864.06;;;17.72;100.00
3142;BME280;1581;51.568;6.998;2023-08-30T11:46:31;99862.31;;;17.87;100.00
3142;BME280;1581;51.568;6.998;2023-08-30T11:48:59;99866.16;;;17.96;100.00
3142;BME280;1581;51.568;6.998;2023-08-30T11:51:27;99873.78;;;18.04;100.00
3142;BME280;1581;51.568;6.998;2023-08-30T11:53:56;99867.41;;;17.84;100.00
3142;BME280;1581;51.568;6.998;2023-08-30T11:56:24;99860.69;;;17.86;100.00
3142;BME280;1581;51.568;6.998;2023-08-30T11:58:52;99866.84;;;18.13;100.00
3142;BME280;1581;51.568;6.998;2023-08-30T12:01:20;99865.81;;;18.19;100.00
3142;BME280;1581;51.568;6.998;2023-08-30T12:03:49;99867.25;;;18.26;100.00
3142;BME280;1581;51.568;6.998;2023-08-30T12:06:17;99870.66;;;18.53;100.00
3142;BME280;1581;51.568;6.998;2023-08-30T12:08:45;99869.66;;;18.64;100.00
3142;BME280;1581;51.568;6.998;2023-08-30T12:11:19;99877.69;;;18.54;100.00
3142;BME280;1581;51.568;6.998;2023-08-30T12:13:47;99882.72;;;18.41;100.00
3142;BME280;1581;51.568;6.998;2023-08-30T12:16:18;99883.09;;;18.59;100.00
3142;BME280;1581;51.568;6.998;2023-08-30T12:18:46;99862.16;;;18.76;100.00
3142;BME280;1581;51.568;6.998;2023-08-30T12:21:15;99864.38;;;18.84;100.00
3142;BME280;1581;51.568;6.998;2023-08-30T12:23:43;99860.28;;;18.77;100.00
3142;BME280;1581;51.568;6.998;2023-08-30T12:26:11;99861.34;;;18.71;100.00
3142;BME280;1581;51.568;6.998;2023-08-30T12:28:40;99870.00;;;18.83;100.00
3142;BME280;1581;51.568;6.998;2023-08-30T12:31:10;99867.84;;;18.80;100.00
3142;BME280;1581;51.568;6.998;2023-08-30T12:33:40;99861.38;;;18.81;100.00
3142;BME280;1581;51.568;6.998;2023-08-30T12:36:10;99866.41;;;18.62;100.00
3142;BME280;1581;51.568;6.998;2023-08-30T12:38:39;99856.94;;;18.60;100.00
3142;BME280;1581;51.568;6.998;2023-08-30T12:41:07;99853.53;;;18.33;100.00
3142;BME280;1581;51.568;6.998;2023-08-30T12:43:37;99847.69;;;18.46;100.00
3142;BME280;1581;51.568;6.998;2023-08-30T12:46:08;99844.41;;;18.39;100.00
3142;BME280;1581;51.568;6.998;2023-08-30T12:48:36;99839.75;;;18.29;100.00
3142;BME280;1581;51.568;6.998;2023-08-30T12:51:07;99825.75;;;18.37;100.00
3142;BME280;1581;51.568;6.998;2023-08-30T12:53:35;99823.38;;;18.41;100.00
3142;BME280;1581;51.568;6.998;2023-08-30T12:56:07;99822.38;;;18.57;100.00
3142;BME280;1581;51.568;6.998;2023-08-30T12:58:38;99821.31;;;18.58;100.00
3142;BME280;1581;51.568;6.998;2023-08-30T13:01:09;99824.63;;;18.70;100.00
3142;BME280;1581;51.568;6.998;2023-08-30T13:03:37;99828.91;;;18.66;100.00
3142;BME280;1581;51.568;6.998;2023-08-30T13:06:07;99830.50;;;18.62;100.00
3142;BME280;1581;51.568;6.998;2023-08-30T13:08:35;99835.13;;;18.66;100.00
3142;BME280;1581;51.568;6.998;2023-08-30T13:11:04;99832.91;;;18.58;100.00
3142;BME280;1581;51.568;6.998;2023-08-30T13:13:33;99838.19;;;18.38;100.00
3142;BME280;1581;51.568;6.998;2023-08-30T13:16:01;99835.47;;;18.38;100.00
3142;BME280;1581;51.568;6.998;2023-08-30T13:18:29;99837.72;;;18.51;100.00